Time;durP1;ratioP1;P1;durP2;ratioP2;P2;SDS_P1;SDS_P2;PMS_P1;PMS_P2;Temp;Humidity;BMP_temperature;BMP_pressure;BME280_temperature;BME280_humidity;BME280_pressure;Samples;Min_cycle;Max_cycle;Signal;HPM_P1;HPM_P2
2022/04/23 00:01:55;;;;;;;16.02;8.75;;;11.60;99.90;;;;;;4915189;28;20051;-73
2022/04/23 00:04:21;;;;;;;12.73;8.68;;;11.50;99.90;;;;;;4935844;28;20053;-71
2022/04/23 00:06:48;;;;;;;12.05;8.15;;;11.50;99.90;;;;;;4929552;28;20627;-71
2022/04/23 00:09:14;;;;;;;11.75;8.27;;;11.50;99.90;;;;;;4934764;28;20059;-72
2022/04/23 00:11:40;;;;;;;12.27;8.55;;;11.50;99.90;;;;;;4938237;28;20046;-72
2022/04/23 00:14:07;;;;;;;14.40;9.10;;;11.40;99.90;;;;;;4932507;28;20082;-71
2022/04/23 00:16:33;;;;;;;15.20;9.52;;;11.40;99.90;;;;;;4925715;28;20093;-73
2022/04/23 00:18:59;;;;;;;19.67;9.20;;;11.40;99.90;;;;;;4937001;28;20054;-72
2022/04/23 00:21:26;;;;;;;17.90;9.25;;;11.40;99.90;;;;;;4935914;28;20047;-72
2022/04/23 00:23:52;;;;;;;14.75;9.13;;;11.30;99.90;;;;;;4956779;28;20058;-71
2022/04/23 00:26:18;;;;;;;16.30;9.02;;;11.30;99.90;;;;;;4948871;28;20392;-72
2022/04/23 00:28:44;;;;;;;15.20;9.32;;;11.20;99.90;;;;;;4934557;28;20051;-71
2022/04/23 00:31:11;;;;;;;17.35;10.05;;;11.20;99.90;;;;;;4935384;28;20522;-71
2022/04/23 00:33:37;;;;;;;13.88;9.15;;;11.20;99.90;;;;;;4952076;28;20049;-72
2022/04/23 00:36:10;;;;;;;17.30;9.48;;;11.20;99.90;;;;;;4933011;28;20039;-74
2022/04/23 00:38:42;;;;;;;16.75;9.85;;;11.10;99.90;;;;;;4917207;28;20492;-72
2022/04/23 00:41:43;;;;;;;16.75;9.88;;;11.10;99.90;;;;;;4932751;28;20054;-71
2022/04/23 00:43:55;;;;;;;17.00;9.43;;;11.10;99.90;;;;;;4931541;28;20066;-71
2022/04/23 00:46:20;;;;;;;15.05;9.25;;;11.10;99.90;;;;;;4950283;28;20057;-76
2022/04/23 00:48:46;;;;;;;16.08;9.68;;;11.00;99.90;;;;;;4934404;28;20043;-73
2022/04/23 00:51:13;;;;;;;14.13;10.05;;;11.00;99.90;;;;;;4918206;28;20397;-71
2022/04/23 00:53:39;;;;;;;15.90;10.73;;;11.00;99.90;;;;;;4916881;28;20496;-71
2022/04/23 00:56:05;;;;;;;14.90;10.80;;;10.90;99.90;;;;;;4948385;28;20047;-72
2022/04/23 00:58:31;;;;;;;15.65;10.27;;;10.90;99.90;;;;;;4929355;28;20497;-72
2022/04/23 01:00:57;;;;;;;16.40;10.32;;;10.30;99.90;;;;;;4933067;28;20138;-71
2022/04/23 01:03:23;;;;;;;17.50;10.23;;;10.90;99.90;;;;;;4936386;28;20058;-73
2022/04/23 01:05:49;;;;;;;17.70;9.80;;;10.90;99.90;;;;;;4914999;28;20554;-72
2022/04/23 01:08:18;;;;;;;16.13;10.40;;;10.80;99.90;;;;;;4919500;28;20054;-71
2022/04/23 01:10:45;;;;;;;16.60;10.80;;;10.80;99.90;;;;;;4933497;28;20055;-72
2022/04/23 01:13:12;;;;;;;17.92;10.63;;;10.70;99.90;;;;;;4933959;28;20055;-70
2022/04/23 01:15:38;;;;;;;15.40;10.27;;;10.80;99.90;;;;;;4931085;28;20062;-73
2022/04/23 01:18:05;;;;;;;19.38;10.93;;;10.70;99.90;;;;;;4919651;28;20051;-74
2022/04/23 01:20:33;;;;;;;17.05;10.70;;;10.70;99.90;;;;;;4932686;28;20054;-72
2022/04/23 01:22:59;;;;;;;17.20;11.27;;;10.60;99.90;;;;;;4922917;28;20408;-71
2022/04/23 01:25:26;;;;;;;17.02;10.98;;;10.60;99.90;;;;;;4916876;28;20058;-71
2022/04/23 01:27:54;;;;;;;19.40;11.15;;;10.60;99.90;;;;;;4917512;28;20051;-71
2022/04/23 01:30:20;;;;;;;20.08;11.38;;;10.50;99.90;;;;;;4935124;28;20055;-73
2022/04/23 01:32:46;;;;;;;19.95;11.65;;;10.50;99.90;;;;;;4902361;28;20464;-71
2022/04/23 01:35:12;;;;;;;18.42;11.23;;;10.50;99.90;;;;;;4928262;28;20054;-72
2022/04/23 01:37:37;;;;;;;20.25;11.80;;;10.40;99.90;;;;;;4946407;28;20059;-72
2022/04/23 01:40:05;;;;;;;17.67;11.77;;;10.40;99.90;;;;;;4939446;28;20416;-72
2022/04/23 01:42:31;;;;;;;20.02;12.73;;;10.40;99.90;;;;;;4916025;28;20043;-73
2022/04/23 01:44:57;;;;;;;20.17;12.27;;;10.40;99.90;;;;;;4934023;29;20035;-71
2022/04/23 01:47:23;;;;;;;19.15;11.77;;;10.40;99.90;;;;;;4953962;28;20051;-71
2022/04/23 01:49:49;;;;;;;16.17;10.75;;;10.30;99.90;;;;;;4937274;29;20051;-71
2022/04/23 01:52:15;;;;;;;20.30;12.27;;;10.30;99.90;;;;;;4950827;28;20062;-72
2022/04/23 01:54:41;;;;;;;20.13;11.82;;;10.30;99.90;;;;;;4935509;29;20098;-71
2022/04/23 01:57:07;;;;;;;18.38;11.57;;;10.30;99.90;;;;;;4937522;29;20059;-71
2022/04/23 01:59:33;;;;;;;19.33;12.05;;;10.30;99.90;;;;;;4936331;29;20105;-72
2022/04/23 02:01:59;;;;;;;20.10;11.55;;;10.20;99.90;;;;;;4935950;28;20047;-70
2022/04/23 02:04:25;;;;;;;18.70;11.95;;;10.20;99.90;;;;;;4948731;28;20055;-71
2022/04/23 02:06:51;;;;;;;22.60;13.05;;;10.20;99.90;;;;;;4936885;29;20043;-71
2022/04/23 02:09:17;;;;;;;17.05;11.43;;;10.10;99.90;;;;;;4952088;28;20058;-72
2022/04/23 02:11:44;;;;;;;20.08;12.32;;;10.10;99.90;;;;;;4937479;29;20055;-72
2022/04/23 02:14:10;;;;;;;20.48;12.57;;;10.10;99.90;;;;;;4922275;28;21336;-71
2022/04/23 02:16:36;;;;;;;19.55;12.52;;;10.00;99.90;;;;;;4904784;29;20049;-71
2022/04/23 02:19:03;;;;;;;17.55;12.10;;;10.00;99.90;;;;;;4938023;28;20392;-71
2022/04/23 02:21:30;;;;;;;18.70;12.18;;;10.00;99.90;;;;;;4937083;29;20500;-71
2022/04/23 02:23:56;;;;;;;17.67;11.75;;;10.00;99.90;;;;;;4931681;28;20043;-71
2022/04/23 02:26:23;;;;;;;17.70;12.07;;;9.90;99.90;;;;;;4937117;29;20047;-71
2022/04/23 02:28:49;;;;;;;23.25;12.77;;;9.90;99.90;;;;;;4920587;28;20051;-73
2022/04/23 02:31:16;;;;;;;21.67;12.52;;;9.90;99.90;;;;;;4936602;29;20404;-72
2022/04/23 02:33:42;;;;;;;18.88;11.90;;;9.90;99.90;;;;;;4917968;28;20055;-72
2022/04/23 02:36:08;;;;;;;18.63;11.77;;;9.90;99.90;;;;;;4934757;28;20058;-72
2022/04/23 02:38:40;;;;;;;18.27;11.65;;;9.90;99.90;;;;;;4958562;28;20066;-71
2022/04/23 02:41:07;;;;;;;18.45;12.57;;;9.80;99.90;;;;;;4949822;28;20039;-70
2022/04/23 02:43:36;;;;;;;17.52;12.30;;;9.80;99.90;;;;;;4904264;29;20122;-72
2022/04/23 02:46:02;;;;;;;19.45;11.75;;;9.80;99.90;;;;;;4936234;29;20055;-72
2022/04/23 02:48:28;;;;;;;22.60;12.10;;;9.80;99.90;;;;;;4951400;28;20062;-71
2022/04/23 02:50:54;;;;;;;18.35;11.90;;;9.80;99.90;;;;;;4935435;29;20058;-71
2022/04/23 02:53:20;;;;;;;17.67;11.95;;;9.80;99.90;;;;;;4935956;29;20054;-70
2022/04/23 02:55:46;;;;;;;16.92;11.55;;;9.80;99.90;;;;;;4934752;29;20051;-72
2022/04/23 02:58:13;;;;;;;21.30;12.10;;;9.70;99.90;;;;;;4946084;28;20102;-73
2022/04/23 03:00:41;;;;;;;18.35;11.68;;;9.80;99.90;;;;;;4932994;29;20476;-71
2022/04/23 03:03:11;;;;;;;17.55;11.57;;;9.80;99.90;;;;;;4936462;29;20055;-71
2022/04/23 03:05:42;;;;;;;19.35;11.80;;;9.80;99.90;;;;;;4951911;28;20047;-71
2022/04/23 03:08:11;;;;;;;16.50;12.20;;;9.80;99.90;;;;;;4920519;29;20130;-71
2022/04/23 03:10:39;;;;;;;18.77;11.25;;;9.70;99.90;;;;;;4920308;29;20077;-70
2022/04/23 03:13:07;;;;;;;18.73;12.18;;;9.70;99.90;;;;;;4936424;28;20052;-72
2022/04/23 03:15:35;;;;;;;19.42;12.30;;;9.70;99.90;;;;;;4935180;29;20055;-72
2022/04/23 03:18:08;;;;;;;20.40;12.45;;;9.70;99.90;;;;;;4935392;29;20054;-71
2022/04/23 03:20:35;;;;;;;18.05;11.18;;;9.70;99.90;;;;;;4925676;29;20058;-73
2022/04/23 03:23:00;;;;;;;17.70;11.65;;;9.70;99.90;;;;;;4928046;29;20097;-71
2022/04/23 03:25:27;;;;;;;15.98;12.02;;;9.70;99.90;;;;;;4936377;29;20492;-71
2022/04/23 03:27:53;;;;;;;18.10;12.00;;;9.70;99.90;;;;;;4935382;29;20106;-72
2022/04/23 03:30:20;;;;;;;18.80;11.98;;;9.70;99.90;;;;;;4951529;28;20110;-73
2022/04/23 03:32:47;;;;;;;18.38;12.00;;;9.60;99.90;;;;;;4919851;29;20051;-72
2022/04/23 03:35:13;;;;;;;17.00;12.15;;;9.60;99.90;;;;;;4936188;29;20455;-74
2022/04/23 03:37:40;;;;;;;17.77;12.18;;;9.60;99.90;;;;;;4946132;29;20063;-71
2022/04/23 03:40:08;;;;;;;18.08;12.27;;;9.60;99.90;;;;;;4899618;29;20055;-71
2022/04/23 03:42:35;;;;;;;16.48;11.63;;;9.60;99.90;;;;;;4932797;29;20508;-71
2022/04/23 03:45:06;;;;;;;17.48;11.85;;;9.50;99.90;;;;;;4914168;29;20048;-71
2022/04/23 03:47:32;;;;;;;16.33;12.07;;;9.50;99.90;;;;;;4914161;29;20063;-71
2022/04/23 03:50:08;;;;;;;17.58;11.60;;;9.50;99.90;;;;;;4901176;29;20119;-71
2022/04/23 03:52:35;;;;;;;17.35;12.02;;;9.50;99.90;;;;;;4916504;29;20059;-70
2022/04/23 03:55:02;;;;;;;18.10;12.18;;;9.40;99.90;;;;;;4917437;29;20079;-72
2022/04/23 03:57:29;;;;;;;20.17;12.73;;;9.40;99.90;;;;;;4908055;29;20138;-71
2022/04/23 03:59:55;;;;;;;16.20;11.82;;;9.30;99.90;;;;;;4915907;29;20446;-72
2022/04/23 04:02:21;;;;;;;17.35;11.80;;;9.30;99.90;;;;;;4932737;29;20055;-72
2022/04/23 04:04:47;;;;;;;16.67;12.02;;;9.30;99.90;;;;;;4917354;29;20139;-71
2022/04/23 04:07:18;;;;;;;17.65;12.40;;;9.30;99.90;;;;;;4916524;29;20560;-70
2022/04/23 04:09:44;;;;;;;18.90;12.80;;;9.30;99.90;;;;;;4916594;29;20524;-71
2022/04/23 04:12:10;;;;;;;18.65;12.45;;;9.30;99.90;;;;;;4900094;29;20143;-71
2022/04/23 04:14:37;;;;;;;18.15;12.90;;;9.30;99.90;;;;;;4932028;29;20043;-72
2022/04/23 04:17:07;;;;;;;17.13;12.13;;;9.30;99.90;;;;;;4932613;29;20056;-72
2022/04/23 04:19:34;;;;;;;17.60;12.70;;;9.20;99.90;;;;;;4932627;29;20051;-72
2022/04/23 04:22:03;;;;;;;18.67;12.88;;;9.20;99.90;;;;;;4916651;29;20056;-71
2022/04/23 04:24:31;;;;;;;17.13;12.32;;;9.20;99.90;;;;;;4933373;29;20044;-70
2022/04/23 04:26:58;;;;;;;17.27;12.40;;;9.20;99.90;;;;;;4919287;29;20051;-72
2022/04/23 04:29:28;;;;;;;16.35;12.05;;;9.10;99.90;;;;;;4919628;29;20207;-70
2022/04/23 04:31:55;;;;;;;17.20;12.32;;;9.20;99.90;;;;;;4936200;29;20137;-72
2022/04/23 04:34:25;;;;;;;18.27;12.50;;;9.20;99.90;;;;;;4920475;29;20051;-72
2022/04/23 04:37:00;;;;;;;18.95;12.77;;;9.10;99.90;;;;;;4919694;29;20378;-72
2022/04/23 04:39:26;;;;;;;19.23;12.38;;;9.10;99.90;;;;;;4919797;29;20090;-71
2022/04/23 04:41:52;;;;;;;18.85;12.07;;;9.10;99.90;;;;;;4920189;29;20453;-70
2022/04/23 04:44:19;;;;;;;18.63;12.60;;;9.50;99.90;;;;;;4910157;29;20044;-72
2022/04/23 04:46:45;;;;;;;18.25;12.10;;;9.10;99.90;;;;;;4920273;29;20059;-71
2022/04/23 04:49:11;;;;;;;20.70;12.70;;;9.10;99.90;;;;;;4935704;29;20126;-69
2022/04/23 04:51:37;;;;;;;17.52;11.75;;;9.00;99.90;;;;;;4935958;29;20052;-71
2022/04/23 04:54:04;;;;;;;16.33;11.57;;;9.10;99.90;;;;;;4920212;29;20044;-72
2022/04/23 04:56:31;;;;;;;15.95;11.32;;;9.10;99.90;;;;;;4919921;29;20044;-70
2022/04/23 04:58:57;;;;;;;18.27;12.25;;;9.10;99.90;;;;;;4919051;29;20486;-72
2022/04/23 05:01:24;;;;;;;17.38;11.55;;;9.10;99.90;;;;;;4904385;29;20162;-71
2022/04/23 05:03:51;;;;;;;17.08;11.18;;;9.10;99.90;;;;;;4920119;29;20503;-71
2022/04/23 05:06:18;;;;;;;17.35;11.40;;;9.10;99.90;;;;;;4919046;29;20102;-71
2022/04/23 05:08:44;;;;;;;17.83;11.88;;;9.10;99.90;;;;;;4935083;29;20493;-71
2022/04/23 05:11:10;;;;;;;16.00;11.73;;;9.20;99.90;;;;;;4918696;29;20054;-71
2022/04/23 05:13:40;;;;;;;16.08;10.68;;;9.20;99.90;;;;;;4919725;29;20078;-71
2022/04/23 05:16:06;;;;;;;17.83;11.85;;;9.20;99.90;;;;;;4919181;29;20432;-71
2022/04/23 05:18:33;;;;;;;17.27;12.07;;;9.20;99.90;;;;;;4933992;29;21291;-71
2022/04/23 05:20:59;;;;;;;17.63;11.38;;;9.30;99.90;;;;;;4919672;29;20050;-72
2022/04/23 05:23:25;;;;;;;19.10;12.07;;;9.30;99.90;;;;;;4919408;29;20055;-71
2022/04/23 05:25:51;;;;;;;17.27;11.52;;;9.30;99.90;;;;;;4903846;29;20114;-72
2022/04/23 05:28:17;;;;;;;16.35;11.38;;;9.30;99.90;;;;;;4918675;29;20051;-70
2022/04/23 05:30:44;;;;;;;16.42;11.80;;;9.40;99.90;;;;;;4904031;29;20050;-71
2022/04/23 05:33:10;;;;;;;15.43;11.30;;;9.40;99.90;;;;;;4923546;29;20134;-72
2022/04/23 05:35:38;;;;;;;15.00;10.98;;;9.50;99.90;;;;;;4919586;29;20078;-71
2022/04/23 05:38:04;;;;;;;19.75;11.82;;;9.50;99.90;;;;;;4917224;29;20052;-72
2022/04/23 05:40:31;;;;;;;15.02;10.88;;;9.50;99.90;;;;;;4919161;29;20107;-72
2022/04/23 05:42:59;;;;;;;16.88;10.68;;;9.60;99.90;;;;;;4919324;29;20054;-71
2022/04/23 05:45:29;;;;;;;15.50;11.25;;;9.60;99.90;;;;;;4918970;29;20043;-72
2022/04/23 05:47:55;;;;;;;15.10;10.77;;;9.70;99.90;;;;;;4901769;29;20409;-72
2022/04/23 05:50:22;;;;;;;14.93;10.93;;;9.70;99.90;;;;;;4903763;29;20078;-71
2022/04/23 05:52:48;;;;;;;14.77;10.85;;;9.80;99.90;;;;;;4919163;29;20055;-71
2022/04/23 05:55:16;;;;;;;16.15;12.25;;;9.90;99.90;;;;;;4902868;29;20146;-76
2022/04/23 05:57:42;;;;;;;17.30;11.65;;;10.00;99.90;;;;;;4936271;29;20043;-73
2022/04/23 06:00:10;;;;;;;17.02;11.70;;;10.00;99.90;;;;;;4918964;29;20055;-71
2022/04/23 06:02:36;;;;;;;17.85;11.27;;;10.10;99.90;;;;;;4917813;29;20055;-71
2022/04/23 06:05:03;;;;;;;14.48;10.73;;;10.10;99.90;;;;;;4917535;29;20394;-71
2022/04/23 06:07:30;;;;;;;13.73;10.45;;;10.20;99.90;;;;;;4917041;29;20194;-71
2022/04/23 06:09:56;;;;;;;15.65;11.63;;;10.20;99.90;;;;;;4918420;29;20051;-71
2022/04/23 06:12:22;;;;;;;17.23;11.57;;;10.30;99.90;;;;;;4918725;29;20051;-71
2022/04/23 06:14:49;;;;;;;16.15;11.10;;;10.40;99.90;;;;;;4934404;29;20062;-69
2022/04/23 06:17:15;;;;;;;16.63;12.02;;;10.50;99.90;;;;;;4933125;29;20051;-71
2022/04/23 06:19:45;;;;;;;15.63;11.30;;;10.60;99.90;;;;;;4918167;29;20059;-72
2022/04/23 06:22:11;;;;;;;16.25;10.85;;;10.70;99.90;;;;;;4918637;29;20417;-70
2022/04/23 06:24:37;;;;;;;17.10;11.32;;;10.70;99.90;;;;;;4934546;29;20055;-70
2022/04/23 06:27:03;;;;;;;15.13;10.95;;;10.80;99.90;;;;;;4933271;29;20040;-72
2022/04/23 06:29:29;;;;;;;15.43;11.73;;;10.90;99.90;;;;;;4917815;29;20087;-70
2022/04/23 06:31:55;;;;;;;16.52;11.35;;;10.90;99.90;;;;;;4918480;29;20456;-70
2022/04/23 06:34:21;;;;;;;14.93;11.18;;;11.00;99.90;;;;;;4935016;29;20055;-71
2022/04/23 06:36:47;;;;;;;15.98;12.00;;;11.10;99.90;;;;;;4917825;29;20512;-73
2022/04/23 06:39:12;;;;;;;16.40;12.30;;;11.10;99.90;;;;;;4909411;29;20055;-72
2022/04/23 06:41:38;;;;;;;17.25;12.15;;;11.20;99.90;;;;;;4933474;29;20430;-72
2022/04/23 06:44:04;;;;;;;14.70;11.68;;;11.20;99.90;;;;;;4936334;29;20051;-71
2022/04/23 06:46:30;;;;;;;16.92;13.07;;;11.30;99.90;;;;;;4937191;29;20048;-70
2022/04/23 06:48:56;;;;;;;16.15;11.75;;;11.30;99.90;;;;;;4917648;29;20094;-72
2022/04/23 06:51:23;;;;;;;15.93;11.70;;;11.40;99.90;;;;;;4934369;29;20063;-72
2022/04/23 06:53:49;;;;;;;16.25;12.45;;;11.50;99.90;;;;;;4912073;29;20505;-71
2022/04/23 06:56:15;;;;;;;15.13;11.65;;;11.50;99.90;;;;;;4930605;29;20099;-73
2022/04/23 06:58:43;;;;;;;15.85;11.98;;;11.60;99.90;;;;;;4929361;29;20063;-72
2022/04/23 07:01:09;;;;;;;16.05;12.40;;;11.60;99.90;;;;;;4929259;29;20059;-70
2022/04/23 07:03:35;;;;;;;16.75;12.18;;;11.70;99.90;;;;;;4913137;29;20116;-71
2022/04/23 07:06:02;;;;;;;15.90;11.20;;;11.80;99.90;;;;;;4903052;29;20044;-70
2022/04/23 07:08:28;;;;;;;16.77;11.77;;;11.90;99.90;;;;;;4903304;29;20054;-71
2022/04/23 07:10:54;;;;;;;15.77;12.38;;;12.00;99.90;;;;;;4934440;29;20055;-71
2022/04/23 07:13:19;;;;;;;16.52;11.57;;;12.10;99.90;;;;;;4911922;29;20048;-69
2022/04/23 07:15:46;;;;;;;17.27;11.55;;;12.10;99.90;;;;;;4932447;29;20441;-71
2022/04/23 07:18:12;;;;;;;15.05;11.88;;;12.20;99.90;;;;;;4916676;29;20051;-71
2022/04/23 07:20:39;;;;;;;16.10;11.88;;;12.30;99.90;;;;;;4883770;29;20637;-69
2022/04/23 07:25:51;;;;;;;17.13;12.70;;;12.40;99.90;;;;;;4913710;29;20043;-73
2022/04/23 07:28:20;;;;;;;15.90;11.32;;;12.50;99.90;;;;;;4933273;29;20096;-71
2022/04/23 07:30:47;;;;;;;14.20;11.55;;;12.50;99.90;;;;;;4909884;29;20052;-70
2022/04/23 07:38:42;;;;;;;19.23;11.68;;;12.70;99.90;;;;;;4911457;29;20557;-71
2022/04/23 07:41:09;;;;;;;15.68;11.88;;;12.80;99.90;;;;;;4926853;29;20517;-71
2022/04/23 07:43:35;;;;;;;16.40;11.93;;;12.90;99.90;;;;;;4916389;29;20047;-71
2022/04/23 07:46:01;;;;;;;15.00;11.93;;;13.10;99.90;;;;;;4914591;29;20068;-71
2022/04/23 07:48:27;;;;;;;15.20;11.60;;;13.20;99.90;;;;;;4925215;29;20043;-73
2022/04/23 07:50:53;;;;;;;14.85;11.48;;;13.20;99.90;;;;;;4930231;29;20409;-70
2022/04/23 07:53:19;;;;;;;18.27;11.95;;;13.20;99.90;;;;;;4917660;29;20091;-71
2022/04/23 07:55:45;;;;;;;15.38;12.48;;;13.20;99.90;;;;;;4933875;29;20047;-70
2022/04/23 07:58:11;;;;;;;16.17;12.55;;;13.30;99.90;;;;;;4912693;29;20063;-72
2022/04/23 08:00:38;;;;;;;15.10;12.07;;;13.40;99.90;;;;;;4914050;29;20138;-72
2022/04/23 08:03:05;;;;;;;13.07;11.35;;;13.40;99.90;;;;;;4932706;29;20055;-72
2022/04/23 08:05:32;;;;;;;13.60;12.00;;;13.50;99.90;;;;;;4916536;29;20401;-70
2022/04/23 08:07:58;;;;;;;15.95;12.32;;;13.50;99.90;;;;;;4916116;29;20047;-70
2022/04/23 08:10:25;;;;;;;13.50;11.88;;;13.60;99.90;;;;;;4916420;29;20055;-69
2022/04/23 08:12:51;;;;;;;16.77;12.40;;;13.70;99.90;;;;;;4931623;29;20060;-71
2022/04/23 08:15:17;;;;;;;14.20;11.45;;;13.70;99.90;;;;;;4897661;29;20401;-71
2022/04/23 08:17:43;;;;;;;14.18;11.70;;;13.90;99.90;;;;;;4929046;29;20074;-69
2022/04/23 08:20:10;;;;;;;13.95;11.55;;;13.90;99.90;;;;;;4915976;29;20043;-72
2022/04/23 08:22:36;;;;;;;16.42;12.35;;;14.00;99.90;;;;;;4931907;29;20044;-70
2022/04/23 08:25:03;;;;;;;16.38;12.43;;;14.10;99.90;;;;;;4931366;29;20083;-71
2022/04/23 08:27:29;;;;;;;16.95;12.38;;;14.10;99.90;;;;;;4915099;29;20043;-68
2022/04/23 08:32:40;;;;;;;16.17;12.45;;;14.30;99.90;;;;;;4913920;29;20047;-70
2022/04/23 08:35:06;;;;;;;15.73;12.55;;;14.40;99.90;;;;;;4929131;29;20456;-71
2022/04/23 08:37:34;;;;;;;14.90;12.10;;;14.60;99.90;;;;;;4934464;29;20047;-69
2022/04/23 08:40:00;;;;;;;15.80;12.38;;;14.60;99.90;;;;;;4933525;29;20047;-71
2022/04/23 08:42:27;;;;;;;14.85;11.70;;;14.70;99.90;;;;;;4933338;28;20526;-69
2022/04/23 08:44:53;;;;;;;14.73;12.50;;;14.60;99.90;;;;;;4949009;28;20059;-71
2022/04/23 08:47:24;;;;;;;15.32;12.05;;;14.70;99.90;;;;;;4915712;29;20138;-71
2022/04/23 08:49:57;;;;;;;14.38;12.32;;;14.70;99.90;;;;;;4944075;28;20043;-69
2022/04/23 08:52:34;;;;;;;21.63;12.93;;;14.70;98.20;;;;;;4934255;29;20058;-71
2022/04/23 08:55:02;;;;;;;16.80;13.20;;;14.70;99.90;;;;;;4927462;28;20079;-71
2022/04/23 08:57:31;;;;;;;15.77;12.85;;;15.00;99.90;;;;;;4947544;28;20051;-69
2022/04/23 08:59:57;;;;;;;15.43;12.60;;;15.00;99.90;;;;;;4912200;29;20514;-70
2022/04/23 09:02:26;;;;;;;16.92;12.45;;;15.00;99.90;;;;;;4949818;28;20047;-71
2022/04/23 09:04:56;;;;;;;16.17;11.95;;;15.00;99.90;;;;;;4926513;28;20058;-70
2022/04/23 09:07:24;;;;;;;15.95;12.95;;;15.10;99.90;;;;;;4944828;28;20050;-71
2022/04/23 09:09:52;;;;;;;16.33;12.50;;;15.30;99.90;;;;;;4932025;29;20051;-68
2022/04/23 09:12:24;;;;;;;14.32;10.93;;;15.40;99.90;;;;;;4948379;28;20130;-70
2022/04/23 09:23:40;;;;;;;14.30;11.63;;;15.80;82.00;;;;;;4949357;28;20062;-70
2022/04/23 09:26:17;;;;;;;15.30;11.32;;;15.60;79.50;;;;;;4933680;28;20114;-70
2022/04/23 09:28:48;;;;;;;15.68;11.20;;;15.60;76.50;;;;;;4947948;28;20051;-70
2022/04/23 09:31:18;;;;;;;15.15;11.10;;;15.70;75.70;;;;;;4947862;28;20305;-71
2022/04/23 09:33:49;;;;;;;13.73;11.48;;;15.70;72.30;;;;;;4932930;29;20083;-71
2022/04/23 09:36:15;;;;;;;15.82;11.60;;;15.80;74.50;;;;;;4947789;28;20047;-72
2022/04/23 09:38:42;;;;;;;15.60;11.55;;;15.80;74.00;;;;;;4916127;29;20063;-69
2022/04/23 09:41:19;;;;;;;16.15;11.52;;;15.90;75.00;;;;;;4931658;29;20067;-70
2022/04/23 09:44:05;;;;;;;17.25;11.93;;;16.00;77.00;;;;;;4932424;29;20483;-72
2022/04/23 09:46:44;;;;;;;14.90;11.25;;;16.20;73.40;;;;;;4948749;28;20106;-70
2022/04/23 09:49:12;;;;;;;13.07;11.38;;;16.30;70.40;;;;;;4917052;29;20054;-71
2022/04/23 09:51:38;;;;;;;13.02;11.05;;;16.20;70.80;;;;;;4932137;28;20039;-69
2022/04/23 09:54:04;;;;;;;14.48;11.02;;;16.30;70.60;;;;;;4951474;28;20055;-71
2022/04/23 09:56:31;;;;;;;14.07;10.68;;;16.30;69.90;;;;;;4949146;28;20134;-71
2022/04/23 09:58:57;;;;;;;13.43;10.98;;;16.30;68.60;;;;;;4932119;28;20050;-69
2022/04/23 10:01:24;;;;;;;11.98;10.35;;;16.50;68.20;;;;;;4949495;28;20489;-70
2022/04/23 10:03:52;;;;;;;15.13;10.38;;;16.70;69.10;;;;;;4933161;29;20042;-70
2022/04/23 10:06:20;;;;;;;12.38;10.05;;;16.70;68.60;;;;;;4931517;28;20079;-70
2022/04/23 10:08:53;;;;;;;18.17;11.25;;;16.80;67.20;;;;;;4931638;29;20068;-69
2022/04/23 10:11:26;;;;;;;15.23;10.90;;;16.90;66.70;;;;;;4931774;29;20047;-70
2022/04/23 10:14:06;;;;;;;12.13;10.15;;;17.10;65.40;;;;;;4932587;29;20059;-72
2022/04/23 10:16:34;;;;;;;13.88;10.10;;;17.20;63.40;;;;;;4916327;29;20079;-69
2022/04/23 10:19:00;;;;;;;11.85;10.55;;;17.20;64.80;;;;;;4946982;28;20101;-69
2022/04/23 10:21:50;;;;;;;13.68;10.55;;;17.10;63.10;;;;;;4948320;28;20047;-69
2022/04/23 10:24:37;;;;;;;13.65;10.23;;;17.30;65.50;;;;;;4947289;28;20510;-69
2022/04/23 10:27:10;;;;;;;14.15;10.60;;;17.40;62.60;;;;;;4932781;29;20396;-69
2022/04/23 10:29:37;;;;;;;12.43;10.65;;;17.40;64.70;;;;;;4925717;29;20050;-71
2022/04/23 10:32:12;;;;;;;16.60;10.35;;;17.30;63.50;;;;;;4914966;28;20047;-69
2022/04/23 10:34:40;;;;;;;14.00;10.25;;;17.40;61.30;;;;;;4948896;28;20137;-71
2022/04/23 10:37:18;;;;;;;12.25;10.55;;;17.70;64.10;;;;;;4942777;28;20047;-71
2022/04/23 10:40:04;;;;;;;13.40;10.77;;;17.50;62.20;;;;;;4946672;28;20058;-70
2022/04/23 10:42:32;;;;;;;12.20;10.20;;;17.60;59.60;;;;;;4924760;28;20051;-72
2022/04/23 10:45:06;;;;;;;13.57;9.73;;;17.70;61.90;;;;;;4947073;28;20043;-70
2022/04/23 10:47:36;;;;;;;12.73;9.88;;;17.70;60.60;;;;;;4933063;28;20043;-69
2022/04/23 10:50:24;;;;;;;12.35;9.60;;;17.50;57.30;;;;;;4932202;29;20097;-70
2022/04/23 10:52:53;;;;;;;12.13;9.60;;;17.70;59.60;;;;;;4947106;28;20051;-69
2022/04/23 10:55:20;;;;;;;10.65;9.15;;;18.00;60.10;;;;;;4947672;28;20051;-71
2022/04/23 10:57:54;;;;;;;12.73;9.98;;;18.00;60.00;;;;;;4946823;28;20109;-70
2022/04/23 11:00:22;;;;;;;13.55;10.13;;;18.00;59.10;;;;;;4947678;28;20532;-71
2022/04/23 11:03:06;;;;;;;12.27;9.95;;;17.80;58.30;;;;;;4946965;28;20244;-70
2022/04/23 11:13:49;;;;;;;12.45;9.55;;;18.40;57.30;;;;;;4946854;28;20055;-69
2022/04/23 11:16:16;;;;;;;13.60;9.43;;;18.30;58.10;;;;;;4946768;28;20114;-70
2022/04/23 11:18:46;;;;;;;11.13;8.90;;;18.30;58.50;;;;;;4946243;28;20043;-70
2022/04/23 11:21:24;;;;;;;10.70;8.82;;;18.50;58.80;;;;;;4932401;29;20055;-71
2022/04/23 11:23:51;;;;;;;9.93;8.25;;;18.60;59.00;;;;;;4946334;28;20053;-71
2022/04/23 11:26:38;;;;;;;9.20;8.18;;;18.80;58.00;;;;;;4947256;28;20054;-69
2022/04/23 11:29:04;;;;;;;11.80;8.73;;;18.80;56.40;;;;;;4930154;29;20050;-70
2022/04/23 11:31:31;;;;;;;10.52;8.50;;;18.70;57.50;;;;;;4947284;28;20044;-71
2022/04/23 11:33:59;;;;;;;14.90;8.65;;;18.70;56.40;;;;;;4947279;28;20377;-70
2022/04/23 11:36:35;;;;;;;10.80;8.70;;;18.70;56.00;;;;;;4948585;28;20079;-71
2022/04/23 11:39:06;;;;;;;11.85;8.25;;;18.90;55.00;;;;;;4933893;28;20059;-70
2022/04/23 11:41:35;;;;;;;11.52;8.38;;;19.00;54.00;;;;;;4923515;29;20051;-69
2022/04/23 11:44:15;;;;;;;22.00;9.95;;;19.00;54.60;;;;;;4956472;29;20051;-70
2022/04/23 11:46:43;;;;;;;12.43;9.00;;;19.20;53.60;;;;;;4940450;29;20055;-69
2022/04/23 11:49:09;;;;;;;10.63;7.65;;;19.10;55.00;;;;;;4920484;29;20051;-69
2022/04/23 11:51:39;;;;;;;11.25;9.27;;;19.40;55.50;;;;;;4935969;29;20055;-70
2022/04/23 11:54:05;;;;;;;10.88;8.68;;;19.50;55.40;;;;;;4951056;28;20085;-70
2022/04/23 11:56:33;;;;;;;10.63;8.10;;;19.40;55.30;;;;;;4935032;29;20523;-71
2022/04/23 11:59:10;;;;;;;9.38;7.65;;;19.80;56.10;;;;;;4949362;28;20506;-71
2022/04/23 12:01:40;;;;;;;8.40;7.50;;;19.90;53.50;;;;;;4949945;28;20051;-69
2022/04/23 12:04:06;;;;;;;11.05;7.95;;;19.90;55.20;;;;;;4934711;28;20054;-70
2022/04/23 12:06:43;;;;;;;8.50;7.70;;;20.20;55.80;;;;;;4950452;28;20123;-70
2022/04/23 12:09:11;;;;;;;10.20;7.63;;;20.40;55.00;;;;;;4935476;28;20059;-71
2022/04/23 12:11:38;;;;;;;8.05;7.25;;;20.50;53.40;;;;;;4933546;28;20052;-70
2022/04/23 12:14:04;;;;;;;8.75;7.22;;;20.70;53.70;;;;;;4936428;28;20043;-71
2022/04/23 12:16:38;;;;;;;7.22;6.53;;;20.70;53.40;;;;;;4934971;28;20043;-73
2022/04/23 12:19:09;;;;;;;7.82;7.03;;;20.80;52.60;;;;;;4950538;28;20043;-71
2022/04/23 12:21:36;;;;;;;7.65;6.85;;;20.90;51.60;;;;;;4932571;28;20496;-71
2022/04/23 12:24:03;;;;;;;7.90;7.00;;;21.00;51.80;;;;;;4917521;28;20089;-70
2022/04/23 12:26:36;;;;;;;19.75;7.60;;;20.80;52.80;;;;;;4949624;28;20484;-70
2022/04/23 12:43:18;;;;;;;7.65;5.82;;;21.90;50.90;;;;;;4951140;28;20126;-70
2022/04/23 12:45:44;;;;;;;9.98;6.63;;;22.10;47.20;;;;;;4948526;28;20047;-70
2022/04/23 12:48:10;;;;;;;6.78;5.88;;;22.20;50.50;;;;;;4949623;28;20493;-72
2022/04/23 12:50:36;;;;;;;7.35;5.95;;;22.50;49.20;;;;;;4929821;28;20051;-70
2022/04/23 12:53:02;;;;;;;9.13;5.20;;;22.70;48.70;;;;;;4934421;29;20055;-71
2022/04/23 12:55:36;;;;;;;6.55;5.45;;;22.90;48.80;;;;;;4909788;28;20516;-70
2022/04/23 12:58:06;;;;;;;8.15;5.95;;;23.50;48.60;;;;;;4933945;28;20058;-69
2022/04/23 13:00:42;;;;;;;6.53;5.55;;;23.60;45.50;;;;;;4917243;28;20515;-70
2022/04/23 13:03:37;;;;;;;6.60;5.75;;;23.80;43.50;;;;;;4934194;28;20051;-70
2022/04/23 13:06:02;;;;;;;6.97;6.13;;;23.80;44.90;;;;;;4932183;29;20051;-70
2022/04/23 13:11:26;;;;;;;6.50;5.90;;;23.60;45.00;;;;;;4949798;28;20083;-70
2022/04/23 13:13:55;;;;;;;6.13;5.32;;;23.10;44.80;;;;;;4933279;29;20055;-71
2022/04/23 13:16:24;;;;;;;6.63;5.38;;;23.50;43.90;;;;;;4932346;29;20653;-69
2022/04/23 13:18:55;;;;;;;5.57;4.93;;;23.80;43.30;;;;;;4933052;29;20110;-71
2022/04/23 13:21:27;;;;;;;5.88;5.28;;;24.30;43.10;;;;;;4933008;28;20083;-71
2022/04/23 13:23:54;;;;;;;5.50;4.97;;;24.60;41.90;;;;;;4917326;28;20043;-70